CheckWX is a tool to help pilots better visualize weather data.  It is not intended as a substitute for an official pre-flight weather briefing.

04:00:32 UTC

CYRJ METAR
Roberval Airport
Roberval, Canada
Current

1 hour ago

CYRJ 250300Z 10003KT 20SM -SN BKN020 OVC058 01/00 A2992 RMK SC6SC2 SLP143
Observed
Apr-25 @ 03:00 UTC
Wind
  • 100° at 3 KTS
Visibility
20 SM
Flight Rules
MVFR
Conditions
Light Snow
Cloud Levels
  • Broken at 2,000' AGL
  • Overcast at 5,800' AGL
Temperature
C / 34°F
Dewpoint
C / 32°F
Humidity
93%
Altimeter
29.92" Hg
Pressure
1013.22 hPa
Previous

2 hours ago

CYRJ 250200Z VRB02KT 25SM OVC017 OVC090 01/00 A2991 RMK SC8AC1 AC TR SLP139
Observed
Apr-25 @ 02:00 UTC
Wind
  • Variable at 2 KTS
Visibility
25 SM
Flight Rules
MVFR
Cloud Levels
  • Overcast at 1,700' AGL
  • Overcast at 9,000' AGL
Temperature
C / 34°F
Dewpoint
C / 32°F
Humidity
93%
Altimeter
29.91" Hg
Pressure
1012.92 hPa
Previous

3 hours ago

CYRJ 250100Z 12003KT 20SM -SN OVC016 01/00 A2990 RMK SC8 PCPN VRY LGT SLP137
Observed
Apr-25 @ 01:00 UTC
Wind
  • 120° at 3 KTS
Visibility
20 SM
Flight Rules
MVFR
Conditions
Light Snow
Cloud Levels
  • Overcast at 1,600' AGL
Temperature
C / 34°F
Dewpoint
C / 32°F
Humidity
93%
Altimeter
29.9" Hg
Pressure
1012.52 hPa